Impacts TAF Board
For situational awareness. Not to be used for flight planning purposes.
IDs:

KSEZ - Sedona Arpt, AZ, US

Issued at 1720 UTC 02 Aug 2021
Updated at 2124 UTC 02 Aug 2021
Potential Impact None Slight Moderate High
Time2115Z 02/22Z 02/23Z 03/00Z 03/01Z 03/02Z 03/03Z 03/04Z 03/05Z 03/06Z 03/07Z 03/08Z 03/09Z 03/10Z>>
Type OBS PRVL PRVL PRVL PRVL PRVL PRVL PRVL PRVL PRVL PRVL PRVL PRVL PRVL
VIS 10 >6 >6 >6 >6 >6 >6 >6 >6 >6 >6 >6 >6 >6
CIG -- -- -- -- -- -- -- -- -- -- -- -- -- --
Cover SCT FEW FEW FEW FEW FEW FEW FEW FEW FEW FEW FEW FEW FEW
FltCat VFR VFR VFR VFR VFR VFR VFR VFR VFR VFR VFR VFR VFR VFR
WX -- -- -- -- -- -- -- -- -- -- -- -- -- --
WDir 190 250 250 250 250 250 50 50 50 50 50 50 50 50
WSpd 8 7 7 7 7 7 8 8 8 8 8 8 8 8
WGst 14 14 14 14 14 14 -- -- -- -- -- -- -- --
Raw TAF
KSEZ 021720Z 0218/0318 16005KT P6SM FEW070 FEW250
  FM021900 16006KT P6SM VCTS FEW080CB SCT250
  FM022100 25007G14KT P6SM FEW110 FEW250
  FM030300 05008KT P6SM FEW110 FEW250


Raw METAR
KSEZ 022115Z AUTO 19008G14KT 130V220 10SM SCT095 35/07 A3021 RMK AO2 LTG DSNT E
KSEZ 022055Z AUTO 16007KT 130V190 10SM SCT095 34/08 A3022 RMK AO2
KSEZ 022035Z AUTO 18009KT 10SM CLR 34/10 A3022 RMK AO2
KSEZ 022015Z AUTO 18007KT 10SM CLR 35/11 A3023 RMK AO2 LTG DSNT E
KSEZ 021955Z AUTO 21006G14KT 10SM CLR 33/11 A3024 RMK AO2 LTG DSNT SE
KSEZ 021935Z AUTO 16008KT 10SM CLR 32/11 A3025 RMK AO2 LTG DSNT E
KSEZ 021915Z AUTO 15008KT 10SM CLR 34/13 A3025 RMK AO2 LTG DSNT E
KSEZ 021855Z AUTO 00000KT 10SM VCTS CLR 32/13 A3026 RMK AO2 LTG DSNT SE
KSEZ 021835Z AUTO 19007KT 10SM CLR 32/14 A3027 RMK AO2 LTG DSNT E

METAR Board
Radar Display
Forecast Discussion
For situational awareness. Not to be used for flight planning purposes.